Detall de PIREP

Printer-friendly versionPDF version

[2012/03/09 10:44:00]
Flight IATA:CT3222
Pilot Number:011
Company ICAO:CAT
Aircraft Type:F28/A
PAX:85
Departing Airport: LPPT
Destination Airport: LEPA
Alternate Airport:LEBL
Online: VATSIM
Route:EXONA DCT PORLI UN870 DIPOL UH100 CJN UN733 GATOS
Flight Level:F300
No Slew and time accel
No pause
Crash detect
Detect pilot in Cockpit between each 30 and 45 minutes
10:44 Zero fuel Weight: 60657 Lbs, Fuel Weight: 11871 Lbs
10:44 VATSIM:LPPT 091030Z 06011KT CAVOK 16/M00 Q1029
10:44 VATSIM:LEPA 091030Z 02019KT 350V050 9999 FEW030 SCT048 13/04 Q1029 NOSIG
10:46 Parking Brakes off
11:01 Take-off
11:01 Take off Weight: 71863 Lbs
11:01 Wind: 063º @ 008 Knots Heading: 200º
11:01 POS N38º 46´ 42´´ W009º 08´ 14´´
11:01 Gear Up: 159 Knots
11:01 Flaps:3 at 159 Knots
11:02 Flaps:2 at 191 Knots
11:02 Flaps:1 at 193 Knots
11:02 Flaps:0 at 202 Knots
11:16 Wind:077º@029 Knots Heading: 040º Ground Speed: 385 Knots Altitude 28887 ft
11:17 TOC
11:17 Fuel Weight: 8976 Lb
11:31 Wind:083º@029 Knots Heading: 067º Ground Speed: 420 Knots Altitude 30511 ft
11:46 Wind:209º@001 Knots Heading: 091º Ground Speed: 450 Knots Altitude 30469 ft
12:01 Wind:065º@010 Knots Heading: 118º Ground Speed: 443 Knots Altitude 30492 ft
12:13 TOD
12:13 Fuel Weight: 4575 Lb
12:16 Wind:051º@037 Knots Heading: 087º Ground Speed: 402 Knots Altitude 26496 ft
12:31 Wind:021º@026 Knots Heading: 067º Ground Speed: 235 Knots Altitude 3723 ft
12:31 Flaps:1 at 214 Knots
12:32 Flaps:2 at 199 Knots
12:32 Flaps:3 at 191 Knots
12:34 Flaps:4 at 173 Knots
12:34 Gear Down: 172 Knots
12:35 Flaps:5 at 153 Knots
12:38 TouchDown:Rate -88 ft/min Speed: 106 Knots
12:38 VATSIM:LEPA 091230Z 02014KT 9999 FEW025 SCT042 13/03 Q1029 NOSIG
12:38 Land
12:38 Wind:022º@015 Knots
12:38 Heading: 057º
12:38 Flight Duration: 01:37
12:38 Landing Weight: 63922 Lbs
12:38 POS N39º 33´ 13´´ E002º 43´ 29´´
12:40 Parking brakes on
12:40 Block to Block Duration: 01:54
12:40 Final Fuel: 3187 Lbls
12:40 Spent Fuel: 8683 Lbls
12:40 Flight Length: 264 NM
12:40 TOD Land Length: 62 NM

Exportar CSV

Powered by Drupal - Modified by Danger4k